createdAt,value
2022-12-17T06:51:59.144Z,70.39
2022-12-17T06:54:44.999Z,70.64
2022-12-17T06:57:30.292Z,69.89
2022-12-17T07:00:16.410Z,69.67
2022-12-17T07:03:02.065Z,69.74
2022-12-17T07:05:48.195Z,69.39
2022-12-17T07:08:37.364Z,72.45
2022-12-17T07:11:29.210Z,71.48
2022-12-17T07:14:14.780Z,71.07
2022-12-17T07:17:00.539Z,70.21
2022-12-17T07:19:45.777Z,70.45
2022-12-17T07:22:31.789Z,70.38
2022-12-17T07:25:24.427Z,70.79
2022-12-17T07:28:15.172Z,70.56
2022-12-17T07:31:00.892Z,69.89
2022-12-17T07:33:46.723Z,70.18
2022-12-17T07:36:33.568Z,69.64
2022-12-17T07:39:23.540Z,69.72
2022-12-17T07:42:10.648Z,69.84
2022-12-17T07:44:56.445Z,69.59
2022-12-17T07:47:43.776Z,69.43
2022-12-17T07:50:29.750Z,70.05
2022-12-17T07:53:18.814Z,69.25
2022-12-17T07:56:06.450Z,69.54
2022-12-17T07:58:53.247Z,69.63
2022-12-17T08:01:42.177Z,69.71
2022-12-17T08:04:28.093Z,69.75
2022-12-17T08:07:14.336Z,73.90
2022-12-17T08:10:01.462Z,75.59
2022-12-17T08:12:47.578Z,73.44
2022-12-17T08:15:34.818Z,71.03
2022-12-17T08:18:26.063Z,69.34
2022-12-17T08:21:12.987Z,69.50
2022-12-17T08:23:58.981Z,70.07
2022-12-17T08:26:47.856Z,71.96
2022-12-17T08:29:33.585Z,70.28
2022-12-17T08:32:20.702Z,68.70
2022-12-17T08:35:11.577Z,68.33
2022-12-17T08:38:00.194Z,68.87
2022-12-17T08:40:46.051Z,68.82
2022-12-17T08:43:31.660Z,69.00
2022-12-17T08:46:18.868Z,68.55
2022-12-17T08:49:05.819Z,68.65
2022-12-17T08:51:51.793Z,68.51
2022-12-17T08:54:37.281Z,68.64
2022-12-17T08:57:36.731Z,68.50
2022-12-17T09:00:22.743Z,68.32
2022-12-17T09:03:16.228Z,68.52
2022-12-17T09:06:03.484Z,68.31
2022-12-17T09:08:49.856Z,68.13
2022-12-17T09:11:35.567Z,68.36
2022-12-17T09:14:21.455Z,68.29
2022-12-17T09:17:06.944Z,68.28
2022-12-17T09:19:52.386Z,68.28
2022-12-17T09:22:39.422Z,68.12
2022-12-17T09:25:27.574Z,67.97
2022-12-17T09:28:13.095Z,67.81
2022-12-17T09:30:59.109Z,68.67
2022-12-17T09:33:53.983Z,70.27
2022-12-17T09:36:46.539Z,69.03
2022-12-17T09:39:36.872Z,69.47
2022-12-17T09:42:32.769Z,71.97
2022-12-17T09:45:26.933Z,78.03
2022-12-17T09:48:30.795Z,75.90
2022-12-17T09:51:18.254Z,72.54
2022-12-17T09:54:06.324Z,67.32
2022-12-17T09:56:55.257Z,66.96
2022-12-17T09:59:46.117Z,66.19
2022-12-17T10:02:35.505Z,66.23
2022-12-17T10:05:24.573Z,66.70
2022-12-17T10:08:12.410Z,66.50
2022-12-17T10:11:04.350Z,67.16
2022-12-17T10:13:50.863Z,66.47
2022-12-17T10:16:43.811Z,66.24
2022-12-17T10:19:34.816Z,66.09
2022-12-17T10:22:27.923Z,69.88
2022-12-17T10:25:21.020Z,67.10
2022-12-17T10:28:09.787Z,67.18
2022-12-17T10:30:57.821Z,66.74
2022-12-17T10:33:43.512Z,66.49
2022-12-17T10:36:41.469Z,66.43
2022-12-17T10:39:47.443Z,66.22
2022-12-17T10:42:42.000Z,66.23
2022-12-17T10:45:42.572Z,66.20
2022-12-17T10:48:41.951Z,66.03
2022-12-17T10:51:38.814Z,65.74
2022-12-17T10:54:34.591Z,66.21
2022-12-17T10:57:20.894Z,66.30
2022-12-17T11:00:11.495Z,65.46
2022-12-17T11:02:59.441Z,65.70
2022-12-17T11:05:52.851Z,65.93
2022-12-17T11:08:42.681Z,65.67
2022-12-17T11:11:31.509Z,65.41
2022-12-17T11:14:21.931Z,65.14
2022-12-17T11:17:10.492Z,65.49
2022-12-17T11:20:03.081Z,65.21
2022-12-17T11:22:58.115Z,64.79
2022-12-17T11:25:52.586Z,65.05
2022-12-17T11:28:43.066Z,64.90
2022-12-17T11:31:53.272Z,64.77
2022-12-17T11:34:49.569Z,64.38
2022-12-17T11:37:40.978Z,64.35
2022-12-17T11:40:40.637Z,64.98
2022-12-17T11:43:34.609Z,64.61
2022-12-17T11:46:35.210Z,64.76
2022-12-17T11:49:32.426Z,64.56
2022-12-17T11:52:24.371Z,64.21
2022-12-17T11:55:25.256Z,64.58
2022-12-17T11:58:16.716Z,64.37
2022-12-17T12:01:17.867Z,64.40
2022-12-17T12:04:15.667Z,64.16
2022-12-17T12:07:11.705Z,64.06
2022-12-17T12:10:06.088Z,63.96
2022-12-17T12:13:03.226Z,63.71
2022-12-17T12:15:59.739Z,63.83
2022-12-17T12:18:54.608Z,63.62
2022-12-17T12:21:58.469Z,63.70
2022-12-17T12:25:03.895Z,63.63
2022-12-17T12:27:56.720Z,63.53
2022-12-17T12:30:54.924Z,64.89
2022-12-17T12:33:50.915Z,64.08
2022-12-17T12:36:42.275Z,63.13
2022-12-17T12:39:31.852Z,62.80
2022-12-17T12:42:22.296Z,63.42
2022-12-17T12:45:13.874Z,63.55
2022-12-17T12:48:09.940Z,63.16
2022-12-17T12:51:06.720Z,63.10
2022-12-17T12:53:52.188Z,62.80
2022-12-17T12:56:51.235Z,62.64
2022-12-17T12:59:58.958Z,62.90
2022-12-17T13:02:50.207Z,62.63
2022-12-17T13:05:34.816Z,62.82
2022-12-17T13:08:20.747Z,62.36
2022-12-17T13:10:48.676Z,62.05
2022-12-17T13:13:30.326Z,62.55
2022-12-17T13:16:02.077Z,62.19
2022-12-17T13:18:33.051Z,62.32
2022-12-17T13:21:24.934Z,62.07
2022-12-17T13:23:54.237Z,61.80
2022-12-17T13:26:24.846Z,62.20
2022-12-17T13:29:11.644Z,61.87
2022-12-17T13:31:52.929Z,61.91
2022-12-17T13:34:32.924Z,62.08
2022-12-17T13:37:15.722Z,61.61
2022-12-17T13:39:52.054Z,62.15
2022-12-17T13:42:27.502Z,62.33
2022-12-17T13:44:55.228Z,62.15
2022-12-17T13:47:24.385Z,61.47
2022-12-17T13:50:31.621Z,61.93
2022-12-17T13:52:44.261Z,61.82
2022-12-17T13:55:21.074Z,61.72
2022-12-17T13:57:50.330Z,61.60
2022-12-17T14:00:25.055Z,61.58
2022-12-17T14:02:52.839Z,61.34
2022-12-17T14:05:26.332Z,61.81
2022-12-17T14:07:58.531Z,61.87
2022-12-17T14:10:25.820Z,61.83
2022-12-17T14:13:03.458Z,61.18
2022-12-17T14:15:33.813Z,61.24
2022-12-17T14:18:06.154Z,61.22
2022-12-17T14:20:35.868Z,60.96
2022-12-17T14:23:12.252Z,61.07
2022-12-17T14:25:44.479Z,61.23
2022-12-17T14:28:22.406Z,60.80
2022-12-17T14:31:24.951Z,60.75
2022-12-17T14:33:38.317Z,60.94
2022-12-17T14:36:08.455Z,60.66
2022-12-17T14:38:39.770Z,61.08
2022-12-17T14:41:30.513Z,60.87
2022-12-17T14:43:59.730Z,61.07
2022-12-17T14:46:28.122Z,61.07
2022-12-17T14:49:02.180Z,61.20
2022-12-17T14:51:32.815Z,60.71
2022-12-17T14:54:18.600Z,60.72
2022-12-17T14:56:47.625Z,60.81
2022-12-17T14:59:25.679Z,60.83
2022-12-17T15:01:56.119Z,60.66
2022-12-17T15:04:23.879Z,60.75
2022-12-17T15:06:54.126Z,60.67
2022-12-17T15:09:22.470Z,60.67
2022-12-17T15:11:49.677Z,60.54
2022-12-17T15:14:22.355Z,60.66
2022-12-17T15:16:49.649Z,60.44
2022-12-17T15:19:19.049Z,60.71
2022-12-17T15:21:49.581Z,60.81
2022-12-17T15:24:20.057Z,61.08
2022-12-17T15:26:49.144Z,60.68
2022-12-17T15:29:16.081Z,60.81
2022-12-17T15:31:52.037Z,60.78
2022-12-17T15:34:24.009Z,61.08
2022-12-17T15:36:57.254Z,60.96
2022-12-17T15:39:24.173Z,60.50
2022-12-17T15:42:13.941Z,60.94
2022-12-17T15:44:40.901Z,60.10
2022-12-17T15:47:08.061Z,60.21
2022-12-17T15:49:35.075Z,60.38
2022-12-17T15:52:02.325Z,60.54
2022-12-17T15:54:29.199Z,60.13
2022-12-17T15:56:58.214Z,59.97
2022-12-17T15:59:25.086Z,60.75
2022-12-17T16:01:52.403Z,60.22
2022-12-17T16:04:24.843Z,60.49
2022-12-17T16:06:53.618Z,60.42
2022-12-17T16:09:26.980Z,60.22
2022-12-17T16:11:57.633Z,60.28
2022-12-17T16:14:27.568Z,60.54
2022-12-17T16:16:54.832Z,60.29
2022-12-17T16:19:21.709Z,60.50
2022-12-17T16:21:50.168Z,60.47
2022-12-17T16:24:17.736Z,60.27
2022-12-17T16:26:44.876Z,60.47
2022-12-17T16:29:11.862Z,60.33
2022-12-17T16:31:48.026Z,60.24
2022-12-17T16:34:15.575Z,60.59
2022-12-17T16:36:42.843Z,60.43
2022-12-17T16:39:20.916Z,60.30
2022-12-17T16:41:50.998Z,60.33
2022-12-17T16:44:23.370Z,60.55
2022-12-17T16:46:54.751Z,60.28
2022-12-17T16:49:24.886Z,60.08
2022-12-17T16:51:57.847Z,60.03
2022-12-17T16:54:27.520Z,60.13
2022-12-17T16:56:55.242Z,59.73
2022-12-17T16:59:23.393Z,59.63
2022-12-17T17:01:52.840Z,59.82
2022-12-17T17:04:23.788Z,60.05
2022-12-17T17:06:53.198Z,60.09
2022-12-17T17:09:20.193Z,60.09
2022-12-17T17:11:51.468Z,60.20
2022-12-17T17:14:22.002Z,60.41
2022-12-17T17:16:49.678Z,59.72
2022-12-17T17:19:21.328Z,59.87
2022-12-17T17:21:51.721Z,59.96
2022-12-17T17:24:22.151Z,59.98
2022-12-17T17:26:50.672Z,59.89
2022-12-17T17:29:17.836Z,60.11
2022-12-17T17:34:39.749Z,60.12
2022-12-17T17:37:07.120Z,59.98
2022-12-17T17:39:34.380Z,60.15
2022-12-17T17:42:05.096Z,60.47
2022-12-17T17:44:37.303Z,60.12
2022-12-17T17:47:05.617Z,59.92
2022-12-17T17:49:34.022Z,60.46
2022-12-17T17:52:10.407Z,59.29
2022-12-17T17:54:39.420Z,59.49
2022-12-17T17:57:07.561Z,59.55
2022-12-17T17:59:34.668Z,60.04
2022-12-17T18:02:03.443Z,59.51
2022-12-17T18:04:31.477Z,59.80
2022-12-17T18:09:49.247Z,59.78
2022-12-17T18:12:37.339Z,60.42
2022-12-17T18:15:20.589Z,60.36
2022-12-17T18:17:51.266Z,60.03
2022-12-17T18:20:18.956Z,59.86
2022-12-17T18:22:46.914Z,60.04
2022-12-17T18:25:17.861Z,60.27
2022-12-17T18:27:45.156Z,60.48
2022-12-17T18:30:12.861Z,60.21
2022-12-17T18:32:43.176Z,60.14
2022-12-17T18:35:10.165Z,60.29
2022-12-17T18:37:37.842Z,60.38
2022-12-17T18:40:05.713Z,60.73
2022-12-17T18:43:12.774Z,60.77
2022-12-17T18:45:39.747Z,60.20
2022-12-17T18:48:07.128Z,60.31
2022-12-17T18:50:34.684Z,60.40
2022-12-17T18:53:01.847Z,60.22
2022-12-17T18:55:31.897Z,60.02
2022-12-17T18:58:01.640Z,60.10
2022-12-17T19:00:28.591Z,59.98
2022-12-17T19:02:55.961Z,60.07
2022-12-17T19:05:28.099Z,60.04
2022-12-17T19:07:57.879Z,59.55
2022-12-17T19:10:26.924Z,59.41
2022-12-17T19:12:54.109Z,59.35
2022-12-17T19:15:23.753Z,59.24
2022-12-17T19:17:52.308Z,59.50
2022-12-17T19:20:19.272Z,59.67
2022-12-17T19:22:49.532Z,59.81
2022-12-17T19:25:23.681Z,59.39
2022-12-17T19:27:52.503Z,59.16
2022-12-17T19:30:21.296Z,59.66
2022-12-17T19:32:53.826Z,59.58
2022-12-17T19:35:22.820Z,59.26
2022-12-17T19:37:53.237Z,59.76
2022-12-17T19:40:25.514Z,59.25
2022-12-17T19:42:54.684Z,59.60
2022-12-17T19:45:21.786Z,60.00
2022-12-17T19:47:50.379Z,60.00
2022-12-17T19:50:17.300Z,59.32
2022-12-17T19:52:46.497Z,59.77
2022-12-17T19:55:14.709Z,59.79
2022-12-17T19:57:41.914Z,59.98
2022-12-17T20:00:12.502Z,59.84
2022-12-17T20:02:43.782Z,59.18
2022-12-17T20:05:13.343Z,59.60
2022-12-17T20:07:42.717Z,59.34
2022-12-17T20:10:11.960Z,59.98
2022-12-17T20:12:42.372Z,59.73
2022-12-17T20:15:10.024Z,59.21
2022-12-17T20:17:42.304Z,59.73
2022-12-17T20:20:09.995Z,60.06
2022-12-17T20:22:38.578Z,60.01
2022-12-17T20:25:11.309Z,59.36
2022-12-17T20:27:39.184Z,60.01
2022-12-17T20:30:07.302Z,59.86
2022-12-17T20:32:34.820Z,59.47
2022-12-17T20:35:01.627Z,59.01
2022-12-17T20:37:30.356Z,59.73
2022-12-17T20:40:02.124Z,59.64
2022-12-17T20:42:29.402Z,59.52
2022-12-17T20:44:56.351Z,59.32
2022-12-17T20:47:26.683Z,59.35
2022-12-17T20:49:53.622Z,59.58
2022-12-17T20:52:24.467Z,59.36
2022-12-17T20:54:51.300Z,59.14
2022-12-17T20:57:19.893Z,59.49
2022-12-17T20:59:46.875Z,59.85
2022-12-17T21:02:16.200Z,59.40
2022-12-17T21:04:42.991Z,60.13
2022-12-17T21:07:12.437Z,60.03
2022-12-17T21:09:39.145Z,60.28
2022-12-17T21:12:13.453Z,59.83
2022-12-17T21:14:41.771Z,60.36
2022-12-17T21:17:09.180Z,60.44
2022-12-17T21:19:36.542Z,60.26
2022-12-17T21:22:10.591Z,60.42
2022-12-17T21:24:38.064Z,59.99
2022-12-17T21:27:09.567Z,60.30
2022-12-17T21:29:41.422Z,60.27
2022-12-17T21:32:08.576Z,60.12
2022-12-17T21:34:35.534Z,60.00
2022-12-17T21:37:02.784Z,60.41
2022-12-17T21:39:31.516Z,60.75
2022-12-17T21:42:17.300Z,60.51
2022-12-17T21:44:45.574Z,60.91
2022-12-17T21:47:13.026Z,60.90
2022-12-17T21:49:39.815Z,59.99
2022-12-17T21:52:07.718Z,60.02
2022-12-17T21:54:37.389Z,60.16
2022-12-17T21:57:05.209Z,60.69
2022-12-17T21:59:34.870Z,60.26
2022-12-17T22:02:04.742Z,60.69
2022-12-17T22:04:32.103Z,60.68
2022-12-17T22:07:02.650Z,60.33
2022-12-17T22:09:46.734Z,60.59
2022-12-17T22:12:41.225Z,60.36
2022-12-17T22:15:11.040Z,60.60
2022-12-17T22:17:42.405Z,60.29
2022-12-17T22:20:10.752Z,60.77
2022-12-17T22:22:38.151Z,60.93
2022-12-17T22:25:08.871Z,60.93
2022-12-17T22:27:38.096Z,60.37
2022-12-17T22:30:29.904Z,60.88
2022-12-17T22:33:08.545Z,60.51
2022-12-17T22:37:24.259Z,60.74
2022-12-17T22:42:05.761Z,60.97
2022-12-17T22:44:38.094Z,60.83
2022-12-17T22:44:43.761Z,60.58
2022-12-17T22:47:14.716Z,61.18
2022-12-17T22:49:43.360Z,61.09
2022-12-17T22:52:11.546Z,61.06
2022-12-17T22:54:38.858Z,60.76
2022-12-17T22:57:37.456Z,61.23
2022-12-17T22:59:54.407Z,60.83
2022-12-17T23:02:21.337Z,60.40
2022-12-17T23:04:50.103Z,60.27
2022-12-17T23:07:17.011Z,59.69
2022-12-17T23:09:45.352Z,59.12
2022-12-17T23:12:31.240Z,59.35
2022-12-17T23:15:01.351Z,59.26
2022-12-17T23:17:28.240Z,59.31
2022-12-17T23:19:56.937Z,59.32
2022-12-17T23:22:23.912Z,59.03
2022-12-17T23:24:51.196Z,59.10
2022-12-17T23:27:19.458Z,58.56
2022-12-17T23:29:46.674Z,59.21
2022-12-17T23:32:13.901Z,58.48
2022-12-17T23:34:40.963Z,58.80
2022-12-17T23:37:09.744Z,59.07
2022-12-17T23:39:36.882Z,59.40
2022-12-17T23:42:04.060Z,59.10
2022-12-17T23:44:31.120Z,59.08
2022-12-17T23:46:59.833Z,59.58
2022-12-17T23:49:29.341Z,59.53
2022-12-17T23:51:56.306Z,59.62
2022-12-17T23:54:26.174Z,59.75
2022-12-17T23:56:56.169Z,60.16
2022-12-17T23:59:23.662Z,60.01
